Turtleford, Canada
Current Conditions -  °F | °C
As of 10:00 PM on Saturday 25 Oct 2014 (Local Time) from CYLL Reporting Station
Overcast Overcast  
Wind Chill: 32°   Ceiling: 7500
Heat Index: 41°   Visibility: 9mi
Dew Point: 25°   Wind: 20mph
Humidity: 53%   Direction: 110°ESE
Pressure: 29.65"   Gusts: 28mph
Location:  53.38°N, 108.97°W
Report Text: CYLL 260400Z AUTO 11017G24KT 9SM BKN075 OVC087 05/M04 A2965 RMK PRESFR SLP066
Loading
Personal Weather Stations






























Interactive Weather Map
Tropical Storm Tracking
New forecast layout! Learn more

10-Day Weather Forecast

Advertisements
Track Severe Weather on mobile